Time;durP1;ratioP1;P1;durP2;ratioP2;P2;SDS_P1;SDS_P2;PMS_P1;PMS_P2;Temp;Humidity;BMP_temperature;BMP_pressure;BME280_temperature;BME280_humidity;BME280_pressure;Samples;Min_cycle;Max_cycle;Signal;HPM_P1;HPM_P2
2023/04/24 02:00:21;;;;;;;11.38;6.93;;;;;;;;;;5020312;27;20053;-70
2023/04/24 02:02:48;;;;;;;9.95;6.43;;;;;;;;;;4303535;33;20056;-71
2023/04/24 02:05:14;;;;;;;17.60;7.93;;;;;;;;;;4302047;33;20443;-71
2023/04/24 02:07:41;;;;;;;9.82;6.15;;;;;;;;;;4309346;33;20106;-73
2023/04/24 02:10:09;;;;;;;7.78;6.62;;;;;;;;;;4307641;33;20078;-71
2023/04/24 02:12:35;;;;;;;11.45;6.60;;;;;;;;;;4295686;33;20083;-70
2023/04/24 02:15:02;;;;;;;15.35;5.72;;;;;;;;;;4294999;33;20450;-71
2023/04/24 02:17:28;;;;;;;10.85;5.90;;;;;;;;;;4303020;33;20086;-71
2023/04/24 02:19:54;;;;;;;15.43;6.82;;;;;;;;;;4308867;33;20048;-73
2023/04/24 02:22:20;;;;;;;11.90;5.55;;;;;;;;;;4308779;33;20105;-70
2023/04/24 02:24:46;;;;;;;13.02;6.60;;;;;;;;;;4310211;33;20056;-70
2023/04/24 02:27:14;;;;;;;15.45;5.93;;;;;;;;;;4309443;33;20082;-70
2023/04/24 02:29:41;;;;;;;9.30;6.03;;;;;;;;;;4306038;33;20096;-71
2023/04/24 02:32:11;;;;;;;12.77;6.30;;;;;;;;;;4277440;33;20392;-73
2023/04/24 02:34:37;;;;;;;11.63;5.78;;;;;;;;;;4293479;33;20298;-71
2023/04/24 02:37:04;;;;;;;10.23;5.45;;;;;;;;;;4272750;33;20071;-70
2023/04/24 02:39:30;;;;;;;11.98;6.15;;;;;;;;;;4278780;33;20037;-71
2023/04/24 02:41:56;;;;;;;11.35;5.90;;;;;;;;;;4278313;33;20037;-70
2023/04/24 02:44:22;;;;;;;7.50;4.90;;;;;;;;;;4278375;33;20072;-70
2023/04/24 02:46:49;;;;;;;11.95;6.35;;;;;;;;;;4292487;33;20716;-70
2023/04/24 02:49:16;;;;;;;10.48;5.72;;;;;;;;;;4293342;33;20079;-70
2023/04/24 02:51:42;;;;;;;12.75;5.85;;;;;;;;;;4292870;33;20033;-70
2023/04/24 02:54:09;;;;;;;13.18;6.05;;;;;;;;;;4293015;33;20055;-70
2023/04/24 02:56:36;;;;;;;17.35;6.43;;;;;;;;;;4275833;33;20057;-71
2023/04/24 02:59:02;;;;;;;10.30;5.97;;;;;;;;;;4277138;33;20049;-70
2023/04/24 03:01:29;;;;;;;8.75;6.32;;;;;;;;;;4269967;33;20559;-70
2023/04/24 03:03:55;;;;;;;11.70;6.10;;;;;;;;;;4288725;33;20171;-71
2023/04/24 03:06:22;;;;;;;13.57;5.87;;;;;;;;;;4281549;33;20041;-72
2023/04/24 03:08:48;;;;;;;12.68;7.45;;;;;;;;;;4291554;33;20063;-70
2023/04/24 03:11:14;;;;;;;13.32;6.62;;;;;;;;;;4281628;33;20069;-72
2023/04/24 03:13:41;;;;;;;12.10;5.95;;;;;;;;;;4278934;33;20085;-71
2023/04/24 03:16:07;;;;;;;11.40;6.10;;;;;;;;;;4273568;33;20034;-73
2023/04/24 03:18:33;;;;;;;12.27;6.18;;;;;;;;;;4263560;33;20037;-74
2023/04/24 03:21:00;;;;;;;13.20;6.07;;;;;;;;;;4263579;33;20227;-71
2023/04/24 03:23:27;;;;;;;13.13;6.82;;;;;;;;;;4245512;33;20076;-71
2023/04/24 03:25:54;;;;;;;12.80;7.05;;;;;;;;;;4236207;33;20035;-71
2023/04/24 03:28:20;;;;;;;10.60;6.03;;;;;;;;;;4259871;33;20077;-71
2023/04/24 03:30:47;;;;;;;17.02;7.62;;;;;;;;;;4264767;33;20057;-73
2023/04/24 03:33:14;;;;;;;16.75;7.22;;;;;;;;;;4263965;33;20054;-71
2023/04/24 03:35:42;;;;;;;14.15;7.60;;;;;;;;;;4262600;33;20030;-71
2023/04/24 03:38:08;;;;;;;14.10;7.72;;;;;;;;;;4274418;33;20409;-72
2023/04/24 03:40:40;;;;;;;;;;;;;;;;;;4265448;33;20092;-74
2023/04/24 03:43:06;;;;;;;12.02;7.45;;;;;;;;;;4253328;33;20283;-73
2023/04/24 03:45:33;;;;;;;14.80;7.60;;;;;;;;;;4250978;33;20066;-70
2023/04/24 03:47:59;;;;;;;10.57;7.25;;;;;;;;;;4252355;33;20034;-71
2023/04/24 03:50:26;;;;;;;11.18;7.30;;;;;;;;;;4249906;33;20109;-72
2023/04/24 03:52:52;;;;;;;15.95;7.32;;;;;;;;;;4251988;33;20042;-74
2023/04/24 03:55:20;;;;;;;13.75;7.47;;;;;;;;;;4263333;33;20436;-70
2023/04/24 03:57:47;;;;;;;14.05;7.60;;;;;;;;;;4266539;33;20050;-71
2023/04/24 04:00:18;;;;;;;19.10;7.50;;;;;;;;;;4253640;33;20035;-71
2023/04/24 04:02:45;;;;;;;9.40;7.00;;;;;;;;;;4255460;33;20087;-71
2023/04/24 04:05:11;;;;;;;11.90;7.45;;;;;;;;;;4264987;33;20103;-73
2023/04/24 04:07:37;;;;;;;15.90;6.25;;;;;;;;;;4252584;33;20034;-70
2023/04/24 04:10:04;;;;;;;12.25;6.60;;;;;;;;;;4246950;33;20087;-70
2023/04/24 04:12:30;;;;;;;13.82;7.07;;;;;;;;;;4237989;33;20054;-72
2023/04/24 04:14:56;;;;;;;18.35;7.15;;;;;;;;;;4243125;33;20030;-71
2023/04/24 04:17:23;;;;;;;9.52;6.95;;;;;;;;;;4265004;33;20057;-74
2023/04/24 04:19:57;;;;;;;15.10;6.53;;;;;;;;;;4266340;33;20062;-71
2023/04/24 04:22:23;;;;;;;18.98;6.78;;;;;;;;;;4277392;33;20528;-72
2023/04/24 04:24:50;;;;;;;8.70;6.35;;;;;;;;;;4279195;33;20072;-70
2023/04/24 04:27:21;;;;;;;13.73;6.50;;;;;;;;;;4280181;33;20556;-71
2023/04/24 04:29:48;;;;;;;13.73;6.75;;;;;;;;;;4278374;33;20091;-71
2023/04/24 04:32:21;;;;;;;11.55;7.18;;;;;;;;;;4280485;33;20438;-71
2023/04/24 04:34:49;;;;;;;15.25;6.80;;;;;;;;;;4303901;33;20030;-71
2023/04/24 04:37:15;;;;;;;12.37;7.35;;;;;;;;;;4308869;33;20103;-71
2023/04/24 04:39:42;;;;;;;15.15;7.72;;;;;;;;;;4307008;33;20117;-72
2023/04/24 04:42:09;;;;;;;21.02;7.03;;;;;;;;;;4307264;33;20052;-69
2023/04/24 04:44:36;;;;;;;12.50;6.82;;;;;;;;;;4309762;33;20061;-71
2023/04/24 04:47:05;;;;;;;13.15;7.35;;;;;;;;;;4293474;33;20461;-71
2023/04/24 04:49:32;;;;;;;13.57;7.28;;;;;;;;;;4278277;33;20505;-70
2023/04/24 04:51:58;;;;;;;21.05;7.40;;;;;;;;;;4279607;33;20059;-70
2023/04/24 04:54:24;;;;;;;15.68;8.35;;;;;;;;;;4277780;33;20273;-70
2023/04/24 04:56:51;;;;;;;18.73;7.55;;;;;;;;;;4279452;33;20105;-71
2023/04/24 04:59:17;;;;;;;15.27;7.62;;;;;;;;;;4279476;33;20067;-70
2023/04/24 05:01:44;;;;;;;18.10;6.82;;;;;;;;;;4282698;33;20076;-71
2023/04/24 05:04:11;;;;;;;21.95;8.50;;;;;;;;;;4276045;33;20115;-71
2023/04/24 05:06:37;;;;;;;19.45;6.20;;;;;;;;;;4264207;33;20077;-73
2023/04/24 05:09:04;;;;;;;18.30;6.75;;;;;;;;;;4263909;33;20536;-71
2023/04/24 05:11:31;;;;;;;17.80;8.20;;;;;;;;;;4249097;33;20105;-71
2023/04/24 05:13:58;;;;;;;14.32;7.10;;;;;;;;;;4250312;33;20035;-75
2023/04/24 05:16:25;;;;;;;25.15;8.32;;;;;;;;;;4249252;33;20046;-70
2023/04/24 05:18:52;;;;;;;16.73;7.35;;;;;;;;;;4251845;33;20476;-71
2023/04/24 05:21:19;;;;;;;24.50;7.12;;;;;;;;;;4252161;33;20056;-71
2023/04/24 05:23:45;;;;;;;20.67;7.40;;;;;;;;;;4252415;33;20030;-71
2023/04/24 05:26:14;;;;;;;22.67;7.10;;;;;;;;;;4262409;33;20137;-70
2023/04/24 05:28:40;;;;;;;20.15;7.75;;;;;;;;;;4251427;33;20049;-70
2023/04/24 05:31:07;;;;;;;19.80;6.70;;;;;;;;;;4244257;33;20071;-71
2023/04/24 05:33:34;;;;;;;13.05;7.32;;;;;;;;;;4237604;33;20070;-71
2023/04/24 05:36:00;;;;;;;12.32;7.45;;;;;;;;;;4229203;33;20083;-72
2023/04/24 05:38:26;;;;;;;20.80;6.78;;;;;;;;;;4235755;33;20090;-70
2023/04/24 05:40:53;;;;;;;14.05;6.40;;;;;;;;;;4235671;33;20423;-72
2023/04/24 05:43:19;;;;;;;12.52;6.37;;;;;;;;;;4233337;33;20211;-71
2023/04/24 05:45:50;;;;;;;21.62;6.43;;;;;;;;;;4233262;33;20066;-73
2023/04/24 05:48:17;;;;;;;14.75;5.15;;;;;;;;;;4223137;33;20083;-75
2023/04/24 05:50:43;;;;;;;15.63;6.25;;;;;;;;;;4247450;33;20050;-72
2023/04/24 05:53:10;;;;;;;11.63;4.68;;;;;;;;;;4222004;33;20038;-73
2023/04/24 05:55:37;;;;;;;22.45;6.80;;;;;;;;;;4219425;33;20059;-72
2023/04/24 05:58:03;;;;;;;10.75;5.57;;;;;;;;;;4221333;33;20219;-73
2023/04/24 06:00:30;;;;;;;20.50;4.57;;;;;;;;;;4221264;34;20060;-76
2023/04/24 06:02:57;;;;;;;11.80;5.87;;;;;;;;;;4223227;33;20058;-72
2023/04/24 06:05:23;;;;;;;20.70;5.75;;;;;;;;;;4222756;33;20203;-71
2023/04/24 06:07:52;;;;;;;13.45;4.85;;;;;;;;;;4223218;33;20057;-73
2023/04/24 06:10:21;;;;;;;28.05;5.30;;;;;;;;;;4208284;34;20100;-73
2023/04/24 06:12:49;;;;;;;32.35;5.53;;;;;;;;;;4207671;34;20050;-82
2023/04/24 06:15:16;;;;;;;11.80;4.85;;;;;;;;;;4233515;33;20053;-72
2023/04/24 06:17:45;;;;;;;13.77;4.57;;;;;;;;;;4229707;33;21180;-76
2023/04/24 06:20:13;;;;;;;18.48;4.93;;;;;;;;;;4222140;34;20065;-74
2023/04/24 06:22:39;;;;;;;18.52;4.90;;;;;;;;;;4226764;33;20038;-73
2023/04/24 06:25:07;;;;;;;21.35;4.32;;;;;;;;;;4239543;33;20468;-76
2023/04/24 06:27:33;;;;;;;20.52;5.40;;;;;;;;;;4258460;33;20034;-71
2023/04/24 06:29:59;;;;;;;9.05;4.85;;;;;;;;;;4286214;33;20521;-72
2023/04/24 06:32:27;;;;;;;16.50;4.22;;;;;;;;;;4289240;33;20044;-72
2023/04/24 06:34:53;;;;;;;16.08;4.82;;;;;;;;;;4284826;33;20045;-71
2023/04/24 06:37:22;;;;;;;11.98;4.37;;;;;;;;;;4280214;33;20071;-75
2023/04/24 06:39:48;;;;;;;8.38;4.03;;;;;;;;;;4279295;33;20057;-71
2023/04/24 06:42:14;;;;;;;9.43;3.80;;;;;;;;;;4291362;33;20119;-71
2023/04/24 06:44:42;;;;;;;15.10;5.07;;;;;;;;;;4292173;33;20575;-70
2023/04/24 06:47:09;;;;;;;6.20;4.05;;;;;;;;;;4293393;33;20050;-71
2023/04/24 06:49:36;;;;;;;18.17;4.18;;;;;;;;;;4291973;33;20041;-71
2023/04/24 06:52:02;;;;;;;7.97;3.15;;;;;;;;;;4293504;33;20522;-70
2023/04/24 06:54:29;;;;;;;9.70;3.87;;;;;;;;;;4293179;33;20067;-70
2023/04/24 06:56:57;;;;;;;14.02;3.75;;;;;;;;;;4270811;33;20045;-71
2023/04/24 06:59:24;;;;;;;9.05;3.05;;;;;;;;;;4271998;33;20075;-72
2023/04/24 07:01:51;;;;;;;8.00;3.42;;;;;;;;;;4263836;33;20175;-70
2023/04/24 07:04:18;;;;;;;12.23;3.72;;;;;;;;;;4278761;33;20063;-72
2023/04/24 07:06:45;;;;;;;4.65;3.72;;;;;;;;;;4278887;33;20371;-71
2023/04/24 07:09:13;;;;;;;15.07;3.37;;;;;;;;;;4250546;33;20054;-72
2023/04/24 07:11:40;;;;;;;9.23;3.15;;;;;;;;;;4220723;34;20038;-71
2023/04/24 07:14:07;;;;;;;5.72;3.03;;;;;;;;;;4225147;33;20082;-72
2023/04/24 07:16:33;;;;;;;11.52;2.83;;;;;;;;;;4210449;34;20047;-71
2023/04/24 07:19:00;;;;;;;10.20;4.45;;;;;;;;;;4210288;34;20043;-71
2023/04/24 07:21:27;;;;;;;10.15;3.50;;;;;;;;;;4209922;34;20035;-68
2023/04/24 07:23:53;;;;;;;5.45;3.03;;;;;;;;;;4210219;34;20052;-72
2023/04/24 07:26:20;;;;;;;6.20;3.25;;;;;;;;;;4209642;34;20031;-71
2023/04/24 07:28:46;;;;;;;14.23;4.32;;;;;;;;;;4221856;33;20034;-69
2023/04/24 07:31:13;;;;;;;3.35;2.60;;;;;;;;;;4223392;33;20154;-70
2023/04/24 07:33:38;;;;;;;9.75;3.65;;;;;;;;;;4223891;33;20065;-71
2023/04/24 07:36:05;;;;;;;26.20;3.90;;;;;;;;;;4223924;33;20487;-70
2023/04/24 07:38:31;;;;;;;5.07;3.15;;;;;;;;;;4222751;33;20111;-70
2023/04/24 07:40:57;;;;;;;16.37;3.08;;;;;;;;;;4246954;33;20053;-70
2023/04/24 07:43:26;;;;;;;18.65;4.32;;;;;;;;;;4258399;33;20046;-71
2023/04/24 07:46:04;;;;;;;7.32;3.22;;;;;;;;;;4255521;33;20202;-72
2023/04/24 07:48:30;;;;;;;8.82;3.62;;;;;;;;;;4264355;33;20037;-72
2023/04/24 07:50:56;;;;;;;12.70;3.12;;;;;;;;;;4265959;33;20689;-71
2023/04/24 07:53:22;;;;;;;8.98;2.70;;;;;;;;;;4269696;33;20029;-70
2023/04/24 07:55:48;;;;;;;13.38;3.50;;;;;;;;;;4280616;33;20474;-70
2023/04/24 07:58:15;;;;;;;3.50;2.83;;;;;;;;;;4272793;33;20049;-71
2023/04/24 08:00:41;;;;;;;3.12;2.83;;;;;;;;;;4293708;33;20057;-71
2023/04/24 08:03:07;;;;;;;4.20;2.90;;;;;;;;;;4293807;33;20343;-70
2023/04/24 08:05:33;;;;;;;9.68;2.78;;;;;;;;;;4296020;33;20053;-70
2023/04/24 08:07:59;;;;;;;6.65;2.75;;;;;;;;;;4295167;33;20128;-70
2023/04/24 08:10:26;;;;;;;9.57;3.22;;;;;;;;;;4295188;33;20091;-71
2023/04/24 08:12:52;;;;;;;4.37;2.95;;;;;;;;;;4292888;33;20479;-74
2023/04/24 08:15:18;;;;;;;5.07;2.83;;;;;;;;;;4295087;33;20086;-70
2023/04/24 08:17:44;;;;;;;6.70;3.33;;;;;;;;;;4295371;33;20058;-70
2023/04/24 08:20:14;;;;;;;6.78;2.75;;;;;;;;;;4295273;33;20600;-70
2023/04/24 08:22:40;;;;;;;11.18;3.08;;;;;;;;;;4294033;33;20360;-70
2023/04/24 08:25:07;;;;;;;5.22;2.87;;;;;;;;;;4292848;33;20063;-70
2023/04/24 08:27:33;;;;;;;4.82;3.85;;;;;;;;;;4295379;33;20048;-72
2023/04/24 08:29:59;;;;;;;3.83;3.08;;;;;;;;;;4295205;33;20075;-70
2023/04/24 08:32:29;;;;;;;9.48;3.60;;;;;;;;;;4295330;33;20030;-70
2023/04/24 08:34:58;;;;;;;4.22;2.80;;;;;;;;;;4293083;33;20103;-69
2023/04/24 08:37:25;;;;;;;6.40;3.55;;;;;;;;;;4271496;33;20034;-69
2023/04/24 08:39:52;;;;;;;5.82;2.97;;;;;;;;;;4266843;33;20122;-75
2023/04/24 08:42:18;;;;;;;6.18;2.72;;;;;;;;;;4266379;33;20039;-71
2023/04/24 08:44:45;;;;;;;4.55;2.72;;;;;;;;;;4266360;33;20057;-73
2023/04/24 08:47:11;;;;;;;4.20;2.72;;;;;;;;;;4266694;33;20446;-71
2023/04/24 08:49:38;;;;;;;3.50;2.90;;;;;;;;;;4264444;33;20080;-72
2023/04/24 08:52:06;;;;;;;11.35;2.92;;;;;;;;;;4266362;33;20046;-72
2023/04/24 08:54:36;;;;;;;3.05;2.78;;;;;;;;;;4266768;33;20054;-71
2023/04/24 08:57:03;;;;;;;11.82;3.03;;;;;;;;;;4275547;33;20075;-72
2023/04/24 08:59:33;;;;;;;6.80;3.37;;;;;;;;;;4279707;33;20069;-77
2023/04/24 09:01:59;;;;;;;15.30;3.15;;;;;;;;;;4287486;33;20042;-74
2023/04/24 09:04:33;;;;;;;3.45;2.80;;;;;;;;;;4295035;33;20075;-70
2023/04/24 09:06:59;;;;;;;3.58;2.70;;;;;;;;;;4293558;33;20036;-72
2023/04/24 09:09:26;;;;;;;3.72;3.37;;;;;;;;;;4293366;33;20059;-72
2023/04/24 09:11:54;;;;;;;9.75;2.83;;;;;;;;;;4292847;33;20131;-75
2023/04/24 09:14:22;;;;;;;2.85;2.65;;;;;;;;;;4294221;33;20088;-71
2023/04/24 09:16:49;;;;;;;5.43;2.47;;;;;;;;;;4294978;33;20029;-73
2023/04/24 09:19:15;;;;;;;8.13;2.70;;;;;;;;;;4295378;33;20040;-73
2023/04/24 09:21:45;;;;;;;5.15;3.53;;;;;;;;;;4293570;33;20069;-72
2023/04/24 09:24:17;;;;;;;9.35;2.97;;;;;;;;;;4294818;33;20231;-71
2023/04/24 09:26:44;;;;;;;4.30;3.45;;;;;;;;;;4294255;33;20404;-72
2023/04/24 09:29:16;;;;;;;6.55;2.58;;;;;;;;;;4294474;33;20052;-71
2023/04/24 09:31:43;;;;;;;9.27;3.30;;;;;;;;;;4293113;33;20041;-76
2023/04/24 09:34:09;;;;;;;3.95;2.67;;;;;;;;;;4297042;33;20214;-71
2023/04/24 09:36:39;;;;;;;4.55;3.42;;;;;;;;;;4296531;33;20129;-71
2023/04/24 09:39:07;;;;;;;3.60;3.20;;;;;;;;;;4297161;33;20428;-73
2023/04/24 09:41:34;;;;;;;6.65;3.17;;;;;;;;;;4296343;33;20055;-71
2023/04/24 09:44:13;;;;;;;9.30;3.30;;;;;;;;;;4294793;33;20054;-72
2023/04/24 09:46:59;;;;;;;8.15;2.85;;;;;;;;;;4296621;33;20488;-72
2023/04/24 09:49:26;;;;;;;6.60;2.87;;;;;;;;;;4295853;33;20364;-72
2023/04/24 09:52:02;;;;;;;15.00;3.95;;;;;;;;;;4302494;33;20049;-70
2023/04/24 09:54:36;;;;;;;5.43;2.85;;;;;;;;;;4296357;33;20049;-71
2023/04/24 09:57:03;;;;;;;5.22;3.40;;;;;;;;;;4296336;33;20210;-71
2023/04/24 09:59:29;;;;;;;4.43;3.30;;;;;;;;;;4293572;33;20091;-72
2023/04/24 10:01:56;;;;;;;7.30;3.28;;;;;;;;;;4302740;33;20107;-71
2023/04/24 10:04:24;;;;;;;7.03;3.15;;;;;;;;;;4294848;33;20067;-71
2023/04/24 10:06:51;;;;;;;3.15;2.50;;;;;;;;;;4294228;33;20103;-72
2023/04/24 10:09:18;;;;;;;12.48;3.37;;;;;;;;;;4293834;33;20086;-71
2023/04/24 10:11:46;;;;;;;6.82;3.10;;;;;;;;;;4292937;33;20074;-70
2023/04/24 10:14:13;;;;;;;4.03;3.08;;;;;;;;;;4294306;33;20188;-70
2023/04/24 10:16:40;;;;;;;6.03;2.92;;;;;;;;;;4293369;33;20439;-69
2023/04/24 10:19:07;;;;;;;7.05;2.62;;;;;;;;;;4292321;33;20448;-70
2023/04/24 10:21:33;;;;;;;5.30;3.50;;;;;;;;;;4290733;33;20419;-70
2023/04/24 10:24:03;;;;;;;6.43;3.25;;;;;;;;;;4293324;33;20110;-70
2023/04/24 10:26:29;;;;;;;14.70;3.17;;;;;;;;;;4292813;33;20371;-70
2023/04/24 10:28:57;;;;;;;4.12;2.72;;;;;;;;;;4293512;33;20148;-69
2023/04/24 10:31:23;;;;;;;5.32;2.30;;;;;;;;;;4277765;33;20053;-71
2023/04/24 10:33:50;;;;;;;3.60;2.60;;;;;;;;;;4278867;33;20072;-71
2023/04/24 10:36:16;;;;;;;12.10;3.12;;;;;;;;;;4253313;33;20034;-71
2023/04/24 10:38:44;;;;;;;8.40;3.55;;;;;;;;;;4251031;33;20170;-69
2023/04/24 10:41:15;;;;;;;20.48;3.65;;;;;;;;;;4250492;33;20072;-71
2023/04/24 10:43:42;;;;;;;15.48;3.75;;;;;;;;;;4249694;33;20105;-71
2023/04/24 10:46:10;;;;;;;13.68;3.25;;;;;;;;;;4250537;33;20067;-70
2023/04/24 10:48:41;;;;;;;7.65;3.10;;;;;;;;;;4252128;33;20403;-70
2023/04/24 10:51:11;;;;;;;3.60;3.00;;;;;;;;;;4253714;33;20171;-70
2023/04/24 10:53:37;;;;;;;3.80;2.95;;;;;;;;;;4253296;33;20060;-72
2023/04/24 10:56:05;;;;;;;6.30;3.80;;;;;;;;;;4256477;33;20041;-71
2023/04/24 10:58:39;;;;;;;6.90;3.33;;;;;;;;;;4262785;33;20068;-71
2023/04/24 11:01:07;;;;;;;13.73;4.90;;;;;;;;;;4405451;28;20093;-71
2023/04/24 11:03:34;;;;;;;13.05;3.95;;;;;;;;;;4248740;33;20054;-71
2023/04/24 11:06:04;;;;;;;11.48;3.30;;;;;;;;;;4266184;33;20363;-71
2023/04/24 11:08:30;;;;;;;8.03;3.90;;;;;;;;;;4282348;33;20057;-71
2023/04/24 11:10:58;;;;;;;10.77;3.87;;;;;;;;;;4297273;33;20675;-71
2023/04/24 11:13:25;;;;;;;11.12;2.72;;;;;;;;;;4308569;33;20040;-70
2023/04/24 11:16:10;;;;;;;8.82;3.20;;;;;;;;;;4308266;33;20036;-71
2023/04/24 11:18:37;;;;;;;7.12;4.60;;;;;;;;;;4281184;33;20472;-71
2023/04/24 11:21:10;;;;;;;6.22;3.85;;;;;;;;;;4278336;33;20041;-71
2023/04/24 11:23:37;;;;;;;11.95;3.58;;;;;;;;;;4281540;33;20060;-70
2023/04/24 11:26:22;;;;;;;9.80;5.30;;;;;;;;;;4279806;33;20406;-70
2023/04/24 11:28:49;;;;;;;9.20;3.60;;;;;;;;;;4279831;33;20068;-71
2023/04/24 11:31:35;;;;;;;17.23;4.37;;;;;;;;;;4252262;33;20050;-71
2023/04/24 11:34:07;;;;;;;14.07;3.70;;;;;;;;;;4251003;33;20170;-71
2023/04/24 11:36:35;;;;;;;6.07;3.42;;;;;;;;;;4250321;33;20096;-70
2023/04/24 11:39:01;;;;;;;5.97;3.20;;;;;;;;;;4224181;33;20408;-70
2023/04/24 11:41:27;;;;;;;7.00;3.58;;;;;;;;;;4224261;34;20366;-70
2023/04/24 11:43:55;;;;;;;3.47;3.17;;;;;;;;;;4222505;34;20055;-70
2023/04/24 11:46:21;;;;;;;16.85;4.00;;;;;;;;;;4220816;34;20030;-70
2023/04/24 11:48:47;;;;;;;5.97;3.87;;;;;;;;;;4230138;33;20070;-70
2023/04/24 11:51:14;;;;;;;3.87;3.47;;;;;;;;;;4235677;33;20054;-70
2023/04/24 11:53:40;;;;;;;3.75;3.10;;;;;;;;;;4235686;33;20080;-71
2023/04/24 11:56:08;;;;;;;8.25;3.12;;;;;;;;;;4231304;33;20711;-75
2023/04/24 11:58:35;;;;;;;6.12;3.03;;;;;;;;;;4234071;33;20117;-73
2023/04/24 12:01:04;;;;;;;12.77;2.83;;;;;;;;;;4206636;34;20126;-72
2023/04/24 12:03:30;;;;;;;7.05;3.92;;;;;;;;;;4238370;33;20095;-71
2023/04/24 12:06:14;;;;;;;4.32;2.97;;;;;;;;;;4249885;33;20081;-71
2023/04/24 12:08:41;;;;;;;2.80;2.60;;;;;;;;;;4208671;34;20093;-72
2023/04/24 12:11:07;;;;;;;9.07;3.42;;;;;;;;;;4226628;33;20102;-70
2023/04/24 12:13:34;;;;;;;10.20;3.17;;;;;;;;;;4236558;33;20050;-71
2023/04/24 12:16:04;;;;;;;16.62;3.50;;;;;;;;;;4228313;33;20522;-71
2023/04/24 12:18:31;;;;;;;7.03;2.90;;;;;;;;;;4198725;34;20059;-70
2023/04/24 12:21:14;;;;;;;6.78;2.95;;;;;;;;;;4200811;34;20078;-72
2023/04/24 12:23:42;;;;;;;7.87;3.10;;;;;;;;;;4204025;34;20050;-72
2023/04/24 12:26:08;;;;;;;12.93;3.47;;;;;;;;;;4200639;34;20409;-74
2023/04/24 12:28:36;;;;;;;4.75;2.90;;;;;;;;;;4201016;34;20046;-69
2023/04/24 12:31:02;;;;;;;3.30;2.90;;;;;;;;;;4203392;34;20065;-69
2023/04/24 12:33:32;;;;;;;10.93;3.40;;;;;;;;;;4220985;34;20462;-70
2023/04/24 12:35:58;;;;;;;3.20;2.90;;;;;;;;;;4220356;34;20034;-74
2023/04/24 12:38:25;;;;;;;10.07;3.58;;;;;;;;;;4222128;33;20102;-70
2023/04/24 12:41:04;;;;;;;7.32;2.70;;;;;;;;;;4234440;33;20050;-70
2023/04/24 12:43:31;;;;;;;3.20;2.40;;;;;;;;;;4216677;33;20102;-70
2023/04/24 12:45:57;;;;;;;6.00;2.60;;;;;;;;;;4221146;33;20125;-72
2023/04/24 12:48:23;;;;;;;4.53;3.05;;;;;;;;;;4236960;33;20587;-70
2023/04/24 12:50:49;;;;;;;5.82;2.80;;;;;;;;;;4279780;33;20092;-71
2023/04/24 12:53:16;;;;;;;6.82;2.60;;;;;;;;;;4277658;33;20621;-71
2023/04/24 12:55:42;;;;;;;8.55;3.08;;;;;;;;;;4276469;33;20072;-70
2023/04/24 12:58:08;;;;;;;7.78;2.70;;;;;;;;;;4272739;33;20054;-70
2023/04/24 13:00:34;;;;;;;6.30;2.90;;;;;;;;;;4277114;33;20749;-71
2023/04/24 13:03:01;;;;;;;9.82;3.60;;;;;;;;;;4288527;33;20453;-72
2023/04/24 13:05:27;;;;;;;3.05;2.80;;;;;;;;;;4296373;33;20096;-71
2023/04/24 13:07:53;;;;;;;10.10;2.60;;;;;;;;;;4300246;33;20539;-74
2023/04/24 13:10:19;;;;;;;2.33;2.22;;;;;;;;;;4272008;33;20057;-75
2023/04/24 13:12:46;;;;;;;4.18;2.25;;;;;;;;;;4269256;33;20352;-74
2023/04/24 13:15:12;;;;;;;2.95;2.62;;;;;;;;;;4269197;33;20305;-73
2023/04/24 13:17:39;;;;;;;4.18;2.87;;;;;;;;;;4267663;33;20169;-72
2023/04/24 13:20:05;;;;;;;14.10;2.78;;;;;;;;;;4265316;33;20067;-72
2023/04/24 13:22:31;;;;;;;7.72;2.67;;;;;;;;;;4273222;33;20050;-73
2023/04/24 13:24:57;;;;;;;4.78;2.83;;;;;;;;;;4269027;33;20212;-73
2023/04/24 13:27:24;;;;;;;4.85;3.78;;;;;;;;;;4267713;33;20034;-74
2023/04/24 13:29:51;;;;;;;3.58;2.22;;;;;;;;;;4245239;33;20179;-73
2023/04/24 13:32:17;;;;;;;5.35;2.62;;;;;;;;;;4231410;33;20102;-76
2023/04/24 13:34:43;;;;;;;2.80;2.58;;;;;;;;;;4231043;33;20399;-74
2023/04/24 13:37:09;;;;;;;12.93;2.35;;;;;;;;;;4225783;33;20058;-73
2023/04/24 13:39:35;;;;;;;11.07;3.60;;;;;;;;;;4212107;34;20103;-74
2023/04/24 13:42:02;;;;;;;5.47;2.70;;;;;;;;;;4228571;33;20042;-72
2023/04/24 13:44:28;;;;;;;12.15;3.58;;;;;;;;;;4232557;33;20060;-77
2023/04/24 13:46:56;;;;;;;5.60;3.40;;;;;;;;;;4233513;33;20109;-72
2023/04/24 13:49:24;;;;;;;12.40;3.08;;;;;;;;;;4247655;33;20064;-73
2023/04/24 13:51:51;;;;;;;4.85;2.78;;;;;;;;;;4249807;33;20046;-73
2023/04/24 13:54:17;;;;;;;5.85;3.00;;;;;;;;;;4255905;33;20183;-72
2023/04/24 13:56:51;;;;;;;9.43;2.92;;;;;;;;;;4254536;33;20062;-72
2023/04/24 13:59:19;;;;;;;4.97;2.90;;;;;;;;;;4246970;33;20112;-75
2023/04/24 14:01:46;;;;;;;4.78;3.30;;;;;;;;;;4260977;33;20054;-72
2023/04/24 14:04:12;;;;;;;9.30;2.85;;;;;;;;;;4262426;33;20050;-77
2023/04/24 14:06:38;;;;;;;11.98;3.25;;;;;;;;;;4253797;33;20054;-74
2023/04/24 14:09:05;;;;;;;10.25;4.22;;;;;;;;;;4248587;33;20380;-73
2023/04/24 14:11:33;;;;;;;8.05;2.70;;;;;;;;;;4246862;33;20882;-74
2023/04/24 14:13:59;;;;;;;4.97;3.40;;;;;;;;;;4248740;33;20046;-74
2023/04/24 14:16:26;;;;;;;4.95;2.90;;;;;;;;;;4237872;33;20054;-74
2023/04/24 14:18:53;;;;;;;5.55;3.33;;;;;;;;;;4233716;33;20058;-73
2023/04/24 14:21:20;;;;;;;3.80;2.78;;;;;;;;;;4237388;33;20116;-72
2023/04/24 14:23:46;;;;;;;7.85;3.28;;;;;;;;;;4236732;33;20068;-73
2023/04/24 14:26:13;;;;;;;3.83;3.03;;;;;;;;;;4245292;33;20539;-77
2023/04/24 14:28:39;;;;;;;9.48;2.83;;;;;;;;;;4240505;33;20039;-74
2023/04/24 14:31:08;;;;;;;12.82;3.35;;;;;;;;;;4236648;33;20062;-73
2023/04/24 14:33:34;;;;;;;8.60;3.05;;;;;;;;;;4221146;33;20062;-74
2023/04/24 14:36:02;;;;;;;11.82;4.10;;;;;;;;;;4227349;33;20057;-74
2023/04/24 14:38:29;;;;;;;4.12;2.72;;;;;;;;;;4200583;34;20035;-77
2023/04/24 14:40:57;;;;;;;10.23;3.03;;;;;;;;;;4213284;33;20059;-73
2023/04/24 14:43:23;;;;;;;10.80;3.12;;;;;;;;;;4193119;34;20325;-74
2023/04/24 14:45:49;;;;;;;4.15;3.08;;;;;;;;;;4192711;34;20081;-74
2023/04/24 14:48:17;;;;;;;8.48;3.85;;;;;;;;;;4214952;33;20118;-74
2023/04/24 14:50:43;;;;;;;15.55;2.78;;;;;;;;;;4220491;33;20404;-74
2023/04/24 14:53:11;;;;;;;6.50;3.00;;;;;;;;;;4217261;33;20068;-74
2023/04/24 14:55:37;;;;;;;3.78;3.22;;;;;;;;;;4219889;33;20077;-73
2023/04/24 14:58:04;;;;;;;9.15;3.75;;;;;;;;;;4203438;34;20179;-72
2023/04/24 15:00:30;;;;;;;9.65;3.45;;;;;;;;;;4205219;34;20125;-75
2023/04/24 15:02:56;;;;;;;7.18;3.33;;;;;;;;;;4219198;33;20076;-81
2023/04/24 15:05:24;;;;;;;17.05;4.57;;;;;;;;;;4227597;33;20034;-73
2023/04/24 15:07:56;;;;;;;7.53;3.42;;;;;;;;;;4235988;33;20133;-75
2023/04/24 15:10:23;;;;;;;12.00;3.37;;;;;;;;;;4231767;33;20198;-73
2023/04/24 15:12:49;;;;;;;4.62;3.08;;;;;;;;;;4248675;33;20209;-77
2023/04/24 15:15:15;;;;;;;7.68;3.33;;;;;;;;;;4235923;33;20072;-73
2023/04/24 15:17:42;;;;;;;6.18;3.12;;;;;;;;;;4234877;33;20058;-75
2023/04/24 15:20:09;;;;;;;6.62;3.15;;;;;;;;;;4232066;33;20072;-72
2023/04/24 15:22:35;;;;;;;3.87;2.97;;;;;;;;;;4234901;33;20476;-73
2023/04/24 15:25:02;;;;;;;6.62;3.25;;;;;;;;;;4214799;34;20043;-78
2023/04/24 15:27:38;;;;;;;3.40;3.10;;;;;;;;;;4217624;34;20047;-74
2023/04/24 15:30:05;;;;;;;4.70;2.90;;;;;;;;;;4223589;33;20513;-74
2023/04/24 15:32:31;;;;;;;12.55;3.50;;;;;;;;;;4248537;33;20558;-74
2023/04/24 15:34:58;;;;;;;4.55;2.78;;;;;;;;;;4220211;33;20093;-74
2023/04/24 15:37:24;;;;;;;3.55;2.50;;;;;;;;;;4221799;33;20640;-73
2023/04/24 15:39:51;;;;;;;11.57;3.60;;;;;;;;;;4223371;33;20065;-74
2023/04/24 15:42:17;;;;;;;8.45;3.67;;;;;;;;;;4221699;33;20128;-73
2023/04/24 15:44:44;;;;;;;7.72;3.25;;;;;;;;;;4210633;33;20493;-77
2023/04/24 15:47:13;;;;;;;9.10;3.78;;;;;;;;;;4219196;34;20098;-73
2023/04/24 15:49:43;;;;;;;6.78;3.55;;;;;;;;;;4221577;34;20064;-75
2023/04/24 15:52:09;;;;;;;5.90;3.60;;;;;;;;;;4232457;33;20091;-73
2023/04/24 15:54:38;;;;;;;5.00;3.37;;;;;;;;;;4232824;33;20058;-74
2023/04/24 15:57:04;;;;;;;4.95;3.62;;;;;;;;;;4230503;33;20067;-73
2023/04/24 15:59:30;;;;;;;4.03;3.45;;;;;;;;;;4235160;33;20046;-72
2023/04/24 16:01:56;;;;;;;8.52;3.92;;;;;;;;;;4242350;33;20053;-74
2023/04/24 16:04:23;;;;;;;8.10;3.22;;;;;;;;;;4261679;33;20067;-73
2023/04/24 16:06:49;;;;;;;7.68;4.30;;;;;;;;;;4274000;33;20075;-73
2023/04/24 16:09:15;;;;;;;6.55;3.58;;;;;;;;;;4275461;33;20462;-73
2023/04/24 16:11:41;;;;;;;6.45;3.45;;;;;;;;;;4269487;33;20091;-73
2023/04/24 16:14:08;;;;;;;6.22;3.55;;;;;;;;;;4269266;33;20672;-75
2023/04/24 16:16:34;;;;;;;8.48;4.05;;;;;;;;;;4258761;33;20467;-72
2023/04/24 16:19:01;;;;;;;3.50;3.17;;;;;;;;;;4256971;33;20053;-73
2023/04/24 16:21:26;;;;;;;3.95;3.25;;;;;;;;;;4270938;33;20123;-73
2023/04/24 16:23:53;;;;;;;8.30;4.37;;;;;;;;;;4270052;33;20053;-73
2023/04/24 16:26:19;;;;;;;11.82;4.50;;;;;;;;;;4285631;33;20109;-71
2023/04/24 16:28:51;;;;;;;6.50;3.30;;;;;;;;;;4288170;33;20054;-72
2023/04/24 16:31:17;;;;;;;10.73;4.10;;;;;;;;;;4285618;33;20219;-72
2023/04/24 16:33:43;;;;;;;17.05;3.80;;;;;;;;;;4289492;33;20064;-72
2023/04/24 16:36:09;;;;;;;9.88;3.85;;;;;;;;;;4290313;33;20056;-72
2023/04/24 16:38:36;;;;;;;7.32;3.92;;;;;;;;;;4285425;33;20071;-71